createdAt,value
2019-03-01T00:00:35.654Z,99954.35
2019-03-01T00:03:04.093Z,99950.63
2019-03-01T00:06:16.248Z,99952.97
2019-03-01T00:09:33.248Z,99945.72
2019-03-01T00:13:11.846Z,99947.95
2019-03-01T00:15:58.819Z,99937.48
2019-03-01T00:19:45.597Z,99942.13
2019-03-01T00:23:23.189Z,99940.00
2019-03-01T00:26:55.902Z,99937.75
2019-03-01T00:30:31.694Z,99941.13
2019-03-01T00:34:02.144Z,99936.82
2019-03-01T00:37:11.355Z,99924.80
2019-03-01T00:40:24.754Z,99935.88
2019-03-01T00:43:57.207Z,99940.15
2019-03-01T00:46:25.160Z,99931.95
2019-03-01T00:48:52.907Z,99931.77
2019-03-01T00:51:22.472Z,99936.12
2019-03-01T00:53:50.375Z,99933.69
2019-03-01T00:56:18.303Z,99924.80
2019-03-01T00:58:46.248Z,99926.74
2019-03-01T01:01:14.479Z,99921.89
2019-03-01T01:03:42.244Z,99920.26
2019-03-01T01:06:10.167Z,99920.16
2019-03-01T01:08:37.909Z,99920.02
2019-03-01T01:11:05.820Z,99918.00
2019-03-01T01:13:33.571Z,99911.09
2019-03-01T01:16:01.519Z,99912.08
2019-03-01T01:18:29.249Z,99908.42
2019-03-01T01:20:57.256Z,99900.88
2019-03-01T01:23:25.175Z,99894.42
2019-03-01T01:25:53.143Z,99890.45
2019-03-01T01:28:21.159Z,99889.19
2019-03-01T01:30:49.096Z,99885.73
2019-03-01T01:33:16.855Z,99883.23
2019-03-01T01:35:44.834Z,99883.15
2019-03-01T01:38:12.579Z,99876.05
2019-03-01T01:40:40.532Z,99876.06
2019-03-01T01:43:08.242Z,99884.22
2019-03-01T01:45:36.186Z,99873.58
2019-03-01T01:48:03.895Z,99865.23
2019-03-01T01:50:31.665Z,99865.88
2019-03-01T01:52:59.381Z,99865.39
2019-03-01T01:55:27.173Z,99862.64
2019-03-01T01:57:54.919Z,99864.95
2019-03-01T02:00:22.679Z,99863.48
2019-03-01T02:02:50.411Z,99857.30
2019-03-01T02:05:18.164Z,99861.04
2019-03-01T02:07:45.907Z,99857.17
2019-03-01T02:10:13.851Z,99857.62
2019-03-01T02:12:41.588Z,99853.36
2019-03-01T02:15:12.480Z,99846.34
2019-03-01T02:17:40.131Z,99850.75
2019-03-01T02:20:08.612Z,99841.00
2019-03-01T02:22:36.522Z,99838.98
2019-03-01T02:25:05.591Z,99837.73
2019-03-01T02:27:33.502Z,99828.48
2019-03-01T02:30:02.665Z,99825.69
2019-03-01T02:32:50.326Z,99823.47
2019-03-01T02:35:23.150Z,99824.03
2019-03-01T02:37:50.922Z,99827.94
2019-03-01T02:40:18.888Z,99828.45
2019-03-01T02:42:46.604Z,99823.80
2019-03-01T02:45:16.790Z,99823.79
2019-03-01T02:50:12.821Z,99821.23
2019-03-01T02:52:40.789Z,99821.41
2019-03-01T02:55:10.658Z,99817.05
2019-03-01T02:57:38.645Z,99813.16
2019-03-01T03:00:13.602Z,99818.58
2019-03-01T03:02:41.520Z,99818.17
2019-03-01T03:05:09.250Z,99819.23
2019-03-01T03:07:48.060Z,99818.94
2019-03-01T03:10:16.703Z,99811.19
2019-03-01T03:12:44.606Z,99810.91
2019-03-01T03:15:13.661Z,99807.89
2019-03-01T03:17:41.425Z,99807.11
2019-03-01T03:20:09.703Z,99811.08
2019-03-01T03:22:37.606Z,99804.81
2019-03-01T03:25:05.814Z,99805.81
2019-03-01T03:27:33.728Z,99813.73
2019-03-01T03:30:01.492Z,99809.06
2019-03-01T03:32:29.465Z,99807.00
2019-03-01T03:34:57.189Z,99806.52
2019-03-01T03:37:24.956Z,99803.46
2019-03-01T03:39:52.743Z,99810.00
2019-03-01T03:42:20.725Z,99807.30
2019-03-01T03:44:48.454Z,99804.73
2019-03-01T03:47:16.348Z,99808.25
2019-03-01T03:49:44.079Z,99805.44
2019-03-01T03:52:11.831Z,99800.64
2019-03-01T03:54:39.568Z,99797.91
2019-03-01T03:57:07.837Z,99803.00
2019-03-01T03:59:35.567Z,99800.19
2019-03-01T04:02:03.322Z,99796.69
2019-03-01T04:04:33.540Z,99792.41
2019-03-01T04:07:01.289Z,99789.77
2019-03-01T04:09:29.026Z,99795.13
2019-03-01T04:11:56.944Z,99792.09
2019-03-01T04:14:24.718Z,99792.02
2019-03-01T04:16:52.479Z,99792.88
2019-03-01T04:19:20.216Z,99792.30
2019-03-01T04:21:48.140Z,99792.54
2019-03-01T04:24:15.879Z,99783.98
2019-03-01T04:26:43.793Z,99787.98
2019-03-01T04:29:11.711Z,99782.92
2019-03-01T04:31:39.480Z,99782.02
2019-03-01T04:34:07.230Z,99785.28
2019-03-01T04:36:35.111Z,99778.11
2019-03-01T04:39:04.916Z,99781.42
2019-03-01T04:41:32.677Z,99775.62
2019-03-01T04:44:00.591Z,99772.54
2019-03-01T04:46:28.358Z,99774.66
2019-03-01T04:48:57.920Z,99772.92
2019-03-01T04:51:25.662Z,99774.55
2019-03-01T04:53:53.555Z,99777.23
2019-03-01T04:56:21.903Z,99769.12
2019-03-01T04:58:49.986Z,99776.59
2019-03-01T05:01:17.720Z,99772.92
2019-03-01T05:03:45.673Z,99774.53
2019-03-01T05:06:13.423Z,99776.24
2019-03-01T05:08:41.185Z,99773.76
2019-03-01T05:11:08.960Z,99776.78
2019-03-01T05:13:36.682Z,99769.63
2019-03-01T05:16:04.450Z,99764.66
2019-03-01T05:18:32.389Z,99759.97
2019-03-01T05:21:00.145Z,99754.17
2019-03-01T05:23:28.117Z,99757.56
2019-03-01T05:25:55.974Z,99762.30
2019-03-01T05:28:23.893Z,99757.44
2019-03-01T05:30:51.663Z,99757.77
2019-03-01T05:33:19.381Z,99752.39
2019-03-01T05:35:47.161Z,99756.53
2019-03-01T05:38:21.449Z,99762.88
2019-03-01T05:40:44.750Z,99763.50
2019-03-01T05:43:12.678Z,99773.04
2019-03-01T05:45:40.743Z,99762.02
2019-03-01T05:48:08.674Z,99757.00
2019-03-01T05:50:36.443Z,99761.14
2019-03-01T05:53:04.411Z,99765.59
2019-03-01T05:55:32.287Z,99765.08
2019-03-01T05:58:28.938Z,99765.67
2019-03-01T06:01:28.109Z,99767.45
2019-03-01T06:04:22.271Z,99766.94
2019-03-01T06:07:38.686Z,99762.15
2019-03-01T06:11:12.334Z,99756.86
2019-03-01T06:14:55.959Z,99764.34
2019-03-01T06:17:56.864Z,99750.91
2019-03-01T06:21:07.588Z,99754.80
2019-03-01T06:24:03.164Z,99752.33
2019-03-01T06:27:24.086Z,99752.28
2019-03-01T06:30:51.459Z,99751.24
2019-03-01T06:33:53.098Z,99750.23
2019-03-01T06:37:04.137Z,99744.53
2019-03-01T06:40:42.954Z,99742.31
2019-03-01T06:44:07.711Z,99743.53
2019-03-01T06:47:28.174Z,99744.81
2019-03-01T06:50:08.632Z,99745.67
2019-03-01T06:52:36.410Z,99750.78
2019-03-01T06:55:04.604Z,99740.09
2019-03-01T06:57:32.357Z,99753.97
2019-03-01T07:00:00.389Z,99749.92
2019-03-01T07:02:35.377Z,99753.58
2019-03-01T07:05:03.227Z,99747.84
2019-03-01T07:07:31.018Z,99754.58
2019-03-01T07:09:58.807Z,99750.83
2019-03-01T07:12:26.609Z,99750.09
2019-03-01T07:14:54.413Z,99742.98
2019-03-01T07:17:22.147Z,99746.75
2019-03-01T07:19:49.877Z,99741.59
2019-03-01T07:22:17.804Z,99749.52
2019-03-01T07:24:45.573Z,99748.56
2019-03-01T07:27:13.336Z,99750.07
2019-03-01T07:29:41.255Z,99751.67
2019-03-01T07:32:09.049Z,99749.60
2019-03-01T07:34:36.819Z,99751.39
2019-03-01T07:37:04.956Z,99751.63
2019-03-01T07:39:32.707Z,99754.95
2019-03-01T07:42:00.593Z,99752.84
2019-03-01T07:44:28.590Z,99754.79
2019-03-01T07:46:57.574Z,99765.63
2019-03-01T07:49:25.388Z,99772.55
2019-03-01T07:51:53.109Z,99766.86
2019-03-01T07:54:22.399Z,99773.36
2019-03-01T07:56:50.303Z,99770.03
2019-03-01T07:59:18.049Z,99765.16
2019-03-01T08:01:45.886Z,99774.95
2019-03-01T08:04:13.636Z,99771.69
2019-03-01T08:06:41.405Z,99774.67
2019-03-01T08:09:12.894Z,99783.00
2019-03-01T08:11:40.884Z,99777.48
2019-03-01T08:14:10.242Z,99775.79
2019-03-01T08:16:38.144Z,99778.68
2019-03-01T08:19:06.009Z,99780.55
2019-03-01T08:21:33.745Z,99786.17
2019-03-01T08:24:01.528Z,99775.41
2019-03-01T08:26:30.797Z,99779.28
2019-03-01T08:28:59.831Z,99773.11
2019-03-01T08:31:27.903Z,99778.00
2019-03-01T08:33:55.664Z,99785.61
2019-03-01T08:36:24.362Z,99783.02
2019-03-01T08:38:52.142Z,99773.87
2019-03-01T08:41:21.489Z,99773.30
2019-03-01T08:43:51.947Z,99770.11
2019-03-01T08:46:19.445Z,99763.97
2019-03-01T08:48:47.278Z,99763.02
2019-03-01T08:51:15.061Z,99769.74
2019-03-01T08:53:42.817Z,99778.39
2019-03-01T08:56:14.460Z,99781.83
2019-03-01T08:58:41.591Z,99776.69
2019-03-01T09:01:11.390Z,99783.41
2019-03-01T09:03:50.616Z,99787.97
2019-03-01T09:06:18.388Z,99776.33
2019-03-01T09:08:46.895Z,99768.56
2019-03-01T09:11:14.761Z,99776.69
2019-03-01T09:13:42.620Z,99765.59
2019-03-01T09:16:10.393Z,99768.62
2019-03-01T09:18:38.126Z,99766.57
2019-03-01T09:21:06.302Z,99764.73
2019-03-01T09:23:34.163Z,99763.13
2019-03-01T09:26:01.978Z,99762.45
2019-03-01T09:28:32.667Z,99765.45
2019-03-01T09:30:59.439Z,99769.12
2019-03-01T09:33:27.441Z,99772.56
2019-03-01T09:36:01.927Z,99764.34
2019-03-01T09:38:29.925Z,99771.57
2019-03-01T09:41:01.058Z,99765.13
2019-03-01T09:43:27.967Z,99776.25
2019-03-01T09:45:56.335Z,99769.48
2019-03-01T09:48:24.607Z,99769.16
2019-03-01T09:50:52.355Z,99769.62
2019-03-01T09:53:20.064Z,99779.28
2019-03-01T09:55:47.867Z,99772.31
2019-03-01T09:58:15.627Z,99771.67
2019-03-01T10:00:55.920Z,99774.23
2019-03-01T10:03:18.019Z,99773.30
2019-03-01T10:05:45.739Z,99766.47
2019-03-01T10:08:13.749Z,99770.84
2019-03-01T10:10:41.529Z,99761.21
2019-03-01T10:13:09.306Z,99754.59
2019-03-01T10:15:37.568Z,99755.57
2019-03-01T10:18:08.918Z,99751.39
2019-03-01T10:20:36.673Z,99755.04
2019-03-01T10:23:04.502Z,99756.20
2019-03-01T10:25:32.380Z,99756.42
2019-03-01T10:28:00.249Z,99762.08
2019-03-01T10:30:28.042Z,99761.00
2019-03-01T10:32:55.724Z,99761.48
2019-03-01T10:35:23.617Z,99764.72
2019-03-01T10:37:53.777Z,99766.17
2019-03-01T10:40:21.656Z,99768.19
2019-03-01T10:42:49.450Z,99765.09
2019-03-01T10:45:21.958Z,99759.55
2019-03-01T10:47:49.732Z,99767.31
2019-03-01T10:50:17.555Z,99767.94
2019-03-01T10:52:45.363Z,99773.88
2019-03-01T10:55:15.617Z,99766.09
2019-03-01T10:57:43.380Z,99767.47
2019-03-01T11:00:22.401Z,99767.26
2019-03-01T11:02:51.546Z,99765.73
2019-03-01T11:05:19.795Z,99766.53
2019-03-01T11:07:48.704Z,99764.28
2019-03-01T11:10:23.128Z,99754.21
2019-03-01T11:12:51.063Z,99754.91
2019-03-01T11:15:19.154Z,99752.41
2019-03-01T11:17:46.984Z,99756.99
2019-03-01T11:20:15.414Z,99756.81
2019-03-01T11:22:46.067Z,99752.27
2019-03-01T11:25:14.420Z,99758.20
2019-03-01T11:27:45.213Z,99761.84
2019-03-01T11:30:21.780Z,99760.13
2019-03-01T11:32:49.687Z,99762.00
2019-03-01T11:35:17.631Z,99767.36
2019-03-01T11:37:45.519Z,99763.56
2019-03-01T11:40:19.825Z,99774.83
2019-03-01T11:42:47.707Z,99774.20
2019-03-01T11:45:15.681Z,99770.50
2019-03-01T11:47:43.625Z,99777.11
2019-03-01T11:50:17.309Z,99785.66
2019-03-01T11:52:45.506Z,99779.69
2019-03-01T11:55:14.124Z,99781.97
2019-03-01T11:57:42.337Z,99783.25
2019-03-01T12:00:14.623Z,99794.23
2019-03-01T12:02:42.540Z,99792.67
2019-03-01T12:05:10.484Z,99794.42
2019-03-01T12:07:38.232Z,99803.58
2019-03-01T12:10:07.680Z,99803.34
2019-03-01T12:12:35.454Z,99804.57
2019-03-01T12:15:03.708Z,99797.07
2019-03-01T12:17:31.505Z,99794.66
2019-03-01T12:19:59.254Z,99792.87
2019-03-01T12:22:27.007Z,99792.71
2019-03-01T12:24:54.809Z,99790.95
2019-03-01T12:27:22.541Z,99797.66
2019-03-01T12:29:50.295Z,99800.43
2019-03-01T12:32:18.038Z,99795.57
2019-03-01T12:34:45.850Z,99796.66
2019-03-01T12:37:13.623Z,99795.03
2019-03-01T12:39:42.887Z,99789.80
2019-03-01T12:42:10.640Z,99794.57
2019-03-01T12:44:38.426Z,99792.64
2019-03-01T12:47:06.237Z,99788.26
2019-03-01T12:49:34.030Z,99790.09
2019-03-01T12:52:01.799Z,99790.53
2019-03-01T12:54:29.576Z,99789.16
2019-03-01T12:56:57.308Z,99791.49
2019-03-01T12:59:25.113Z,99796.65
2019-03-01T13:01:52.850Z,99793.53
2019-03-01T13:04:20.635Z,99811.47
2019-03-01T13:06:48.405Z,99812.36
2019-03-01T13:09:16.452Z,99822.42
2019-03-01T13:11:44.198Z,99813.16
2019-03-01T13:14:12.440Z,99810.46
2019-03-01T13:16:40.191Z,99817.09
2019-03-01T13:19:07.983Z,99805.55
2019-03-01T13:21:35.715Z,99821.25
2019-03-01T13:24:03.642Z,99820.22
2019-03-01T13:26:31.449Z,99816.61
2019-03-01T13:28:59.277Z,99821.90
2019-03-01T13:31:28.437Z,99813.16
2019-03-01T13:33:58.530Z,99825.95
2019-03-01T13:36:26.267Z,99827.83
2019-03-01T13:38:54.036Z,99847.15
2019-03-01T13:41:21.795Z,99850.16
2019-03-01T13:43:49.616Z,99853.11
2019-03-01T13:46:17.347Z,99855.70
2019-03-01T13:48:45.174Z,99859.08
2019-03-01T13:51:13.813Z,99862.30
2019-03-01T13:53:49.032Z,99867.16
2019-03-01T13:56:12.351Z,99870.70
2019-03-01T13:58:40.157Z,99869.72
2019-03-01T14:01:08.107Z,99882.71
2019-03-01T14:03:36.041Z,99884.11
2019-03-01T14:06:03.789Z,99883.88
2019-03-01T14:08:31.577Z,99888.52
2019-03-01T14:10:59.375Z,99884.48
2019-03-01T14:13:29.164Z,99883.00
2019-03-01T14:15:57.025Z,99894.56
2019-03-01T14:18:24.790Z,99892.19
2019-03-01T14:20:54.368Z,99888.52
2019-03-01T14:23:24.873Z,99893.02
2019-03-01T14:25:51.935Z,99899.55
2019-03-01T14:28:19.765Z,99900.70
2019-03-01T14:30:47.562Z,99899.81
2019-03-01T14:33:15.374Z,99899.02
2019-03-01T14:35:43.192Z,99903.25
2019-03-01T14:38:11.031Z,99906.17
2019-03-01T14:40:38.839Z,99911.33
2019-03-01T14:43:06.601Z,99904.51
2019-03-01T14:45:34.380Z,99909.80
2019-03-01T14:48:05.134Z,99906.61
2019-03-01T14:50:33.790Z,99912.42
2019-03-01T14:53:01.548Z,99911.45
2019-03-01T14:55:34.033Z,99909.03
2019-03-01T14:58:19.054Z,99912.86
2019-03-01T15:01:01.942Z,99916.12
2019-03-01T15:03:38.979Z,99915.98
2019-03-01T15:06:08.250Z,99920.48
2019-03-01T15:08:40.426Z,99916.89
2019-03-01T15:11:14.793Z,99924.52
2019-03-01T15:13:42.808Z,99929.67
2019-03-01T15:16:10.741Z,99928.84
2019-03-01T15:18:39.464Z,99930.66
2019-03-01T15:21:08.212Z,99934.38
2019-03-01T15:23:35.995Z,99935.75
2019-03-01T15:26:04.113Z,99930.72
2019-03-01T15:28:35.650Z,99941.25
2019-03-01T15:31:03.435Z,99937.89
2019-03-01T15:33:31.211Z,99944.33
2019-03-01T15:35:59.033Z,99947.63
2019-03-01T15:38:27.673Z,99956.37
2019-03-01T15:40:56.444Z,99956.34
2019-03-01T15:43:26.479Z,99956.79
2019-03-01T15:45:53.859Z,99967.48
2019-03-01T15:48:21.633Z,99972.54
2019-03-01T15:50:49.613Z,99974.02
2019-03-01T15:53:17.388Z,99989.53
2019-03-01T15:55:45.282Z,99994.06
2019-03-01T15:58:13.112Z,99994.91
2019-03-01T16:00:40.910Z,99998.03
2019-03-01T16:03:08.987Z,100001.16
2019-03-01T16:05:37.389Z,99999.56
2019-03-01T16:08:08.487Z,100006.51
2019-03-01T16:10:36.178Z,100015.95
2019-03-01T16:13:04.739Z,100022.02
2019-03-01T16:15:38.362Z,100028.55
2019-03-01T16:18:04.046Z,100020.13
2019-03-01T16:20:31.835Z,100026.81
2019-03-01T16:22:59.603Z,100024.48
2019-03-01T16:25:27.403Z,100033.70
2019-03-01T16:27:55.200Z,100035.09
2019-03-01T16:30:23.024Z,100040.70
2019-03-01T16:32:50.896Z,100048.05
2019-03-01T16:35:18.704Z,100052.59
2019-03-01T16:37:49.020Z,100058.09
2019-03-01T16:40:16.776Z,100060.36
2019-03-01T16:42:45.264Z,100063.06
2019-03-01T16:45:13.585Z,100073.19
2019-03-01T16:47:42.149Z,100069.38
2019-03-01T16:50:12.014Z,100074.59
2019-03-01T16:52:39.819Z,100084.61
2019-03-01T16:55:11.229Z,100081.86
2019-03-01T16:57:39.042Z,100085.23
2019-03-01T17:00:09.386Z,100092.16
2019-03-01T17:02:38.757Z,100097.94
2019-03-01T17:05:08.075Z,100109.09
2019-03-01T17:07:35.927Z,100115.67
2019-03-01T17:10:04.379Z,100116.50
2019-03-01T17:12:33.437Z,100120.11
2019-03-01T17:15:01.664Z,100124.93
2019-03-01T17:17:33.102Z,100131.10
2019-03-01T17:20:02.614Z,100138.39
2019-03-01T17:22:29.081Z,100137.76
2019-03-01T17:24:56.881Z,100147.55
2019-03-01T17:27:24.757Z,100158.95
2019-03-01T17:29:52.493Z,100164.53
2019-03-01T17:32:20.289Z,100167.16
2019-03-01T17:34:48.028Z,100170.34
2019-03-01T17:37:15.953Z,100176.36
2019-03-01T17:39:43.699Z,100178.09
2019-03-01T17:42:11.471Z,100184.75
2019-03-01T17:44:41.342Z,100190.02
2019-03-01T17:47:09.682Z,100188.30
2019-03-01T17:49:38.523Z,100193.78
2019-03-01T17:52:06.283Z,100200.92
2019-03-01T17:54:34.083Z,100203.36
2019-03-01T17:57:01.829Z,100202.52
2019-03-01T17:59:29.604Z,100209.34
2019-03-01T18:01:57.573Z,100212.88
2019-03-01T18:04:25.425Z,100211.83
2019-03-01T18:06:53.203Z,100206.84
2019-03-01T18:09:20.957Z,100204.61
2019-03-01T18:11:48.725Z,100212.81
2019-03-01T18:14:16.510Z,100216.20
2019-03-01T18:16:44.295Z,100220.80
2019-03-01T18:19:12.042Z,100228.38
2019-03-01T18:21:39.797Z,100228.58
2019-03-01T18:24:07.534Z,100240.37
2019-03-01T18:26:36.405Z,100240.87
2019-03-01T18:29:08.227Z,100251.33
2019-03-01T18:31:35.624Z,100255.70
2019-03-01T18:34:03.390Z,100257.63
2019-03-01T18:36:31.581Z,100264.08
2019-03-01T18:39:00.268Z,100264.83
2019-03-01T18:41:28.274Z,100263.94
2019-03-01T18:43:56.146Z,100264.21
2019-03-01T18:46:23.957Z,100262.09
2019-03-01T18:48:51.742Z,100264.88
2019-03-01T18:51:19.550Z,100268.09
2019-03-01T18:53:47.318Z,100273.55
2019-03-01T18:56:15.104Z,100276.17
2019-03-01T18:58:45.760Z,100281.03
2019-03-01T19:01:12.952Z,100280.44
2019-03-01T19:03:41.733Z,100288.02
2019-03-01T19:06:12.816Z,100287.38
2019-03-01T19:08:39.618Z,100295.66
2019-03-01T19:11:08.216Z,100296.45
2019-03-01T19:13:35.990Z,100294.22
2019-03-01T19:16:03.777Z,100305.09
2019-03-01T19:18:31.554Z,100303.83
2019-03-01T19:20:59.316Z,100305.42
2019-03-01T19:23:29.332Z,100316.02
2019-03-01T19:26:00.896Z,100319.87
2019-03-01T19:28:26.777Z,100325.22
2019-03-01T19:30:55.407Z,100324.49
2019-03-01T19:33:23.243Z,100340.30
2019-03-01T19:35:51.046Z,100348.54
2019-03-01T19:38:21.839Z,100352.05
2019-03-01T19:40:48.661Z,100355.45
2019-03-01T19:43:16.421Z,100356.59
2019-03-01T19:45:44.410Z,100352.44
2019-03-01T19:48:12.243Z,100351.79
2019-03-01T19:50:40.057Z,100360.36
2019-03-01T19:53:07.823Z,100366.63
2019-03-01T19:55:35.789Z,100370.98
2019-03-01T19:58:03.586Z,100374.80
2019-03-01T20:00:31.662Z,100383.80
2019-03-01T20:02:59.411Z,100378.11
2019-03-01T20:05:27.796Z,100390.38
2019-03-01T20:07:57.084Z,100392.55
2019-03-01T20:10:25.050Z,100395.84
2019-03-01T20:12:52.847Z,100397.84
2019-03-01T20:15:22.065Z,100402.87
2019-03-01T20:17:49.905Z,100399.51
2019-03-01T20:20:19.752Z,100403.39
2019-03-01T20:22:50.600Z,100411.73
2019-03-01T20:25:17.250Z,100415.47
2019-03-01T20:27:45.198Z,100425.57
2019-03-01T20:30:28.658Z,100429.83
2019-03-01T20:32:53.582Z,100433.63
2019-03-01T20:35:21.413Z,100435.67
2019-03-01T20:37:50.155Z,100431.23
2019-03-01T20:40:17.945Z,100438.28
2019-03-01T20:42:45.904Z,100436.80
2019-03-01T20:47:44.785Z,100443.45
2019-03-01T20:50:15.721Z,100443.54
2019-03-01T20:52:42.403Z,100439.66
2019-03-01T20:55:10.331Z,100443.47
2019-03-01T20:57:38.148Z,100448.14
2019-03-01T21:00:09.205Z,100446.34
2019-03-01T21:02:36.982Z,100451.93
2019-03-01T21:05:05.806Z,100447.17
2019-03-01T21:07:33.626Z,100449.01
2019-03-01T21:10:01.470Z,100457.34
2019-03-01T21:12:29.313Z,100458.90
2019-03-01T21:14:58.776Z,100460.83
2019-03-01T21:17:26.838Z,100457.16
2019-03-01T21:19:54.614Z,100459.08
2019-03-01T21:22:22.429Z,100456.03
2019-03-01T21:24:50.199Z,100454.98
2019-03-01T21:27:18.032Z,100455.78
2019-03-01T21:29:47.583Z,100456.61
2019-03-01T21:32:15.532Z,100440.84
2019-03-01T21:34:43.299Z,100443.16
2019-03-01T21:37:12.369Z,100448.49
2019-03-01T21:39:40.117Z,100450.62
2019-03-01T21:42:08.225Z,100447.84
2019-03-01T21:44:35.953Z,100446.63
2019-03-01T21:47:06.932Z,100444.33
2019-03-01T21:49:33.523Z,100442.60
2019-03-01T21:52:03.867Z,100443.96
2019-03-01T21:54:31.649Z,100448.34
2019-03-01T21:56:59.512Z,100442.39
2019-03-01T21:59:27.235Z,100437.52
2019-03-01T22:01:55.032Z,100441.73
2019-03-01T22:04:22.789Z,100450.06
2019-03-01T22:06:50.589Z,100443.05
2019-03-01T22:09:20.708Z,100439.17
2019-03-01T22:11:49.197Z,100446.13
2019-03-01T22:14:17.681Z,100450.59
2019-03-01T22:16:45.440Z,100442.19
2019-03-01T22:19:13.210Z,100444.88
2019-03-01T22:21:40.985Z,100447.61
2019-03-01T22:24:08.763Z,100443.96
2019-03-01T22:26:36.591Z,100458.45
2019-03-01T22:29:05.359Z,100448.75
2019-03-01T22:31:35.419Z,100456.46
2019-03-01T22:34:02.889Z,100457.71
2019-03-01T22:36:30.674Z,100463.72
2019-03-01T22:38:58.431Z,100467.87
2019-03-01T22:41:26.211Z,100469.17
2019-03-01T22:43:54.194Z,100464.09
2019-03-01T22:46:24.829Z,100469.57
2019-03-01T22:48:56.331Z,100466.89
2019-03-01T22:51:21.286Z,100471.28
2019-03-01T22:53:49.116Z,100470.64
2019-03-01T22:56:16.854Z,100472.25
2019-03-01T22:58:44.621Z,100465.13
2019-03-01T23:01:23.486Z,100464.83
2019-03-01T23:03:59.013Z,100468.65
2019-03-01T23:06:26.765Z,100464.59
2019-03-01T23:08:55.313Z,100463.59
2019-03-01T23:11:23.052Z,100462.41
2019-03-01T23:13:52.836Z,100464.75
2019-03-01T23:16:20.483Z,100462.53
2019-03-01T23:18:56.427Z,100466.09
2019-03-01T23:21:17.934Z,100467.31
2019-03-01T23:23:45.736Z,100472.62
2019-03-01T23:26:13.468Z,100469.53
2019-03-01T23:28:43.801Z,100470.91
2019-03-01T23:31:10.871Z,100476.14
2019-03-01T23:33:38.634Z,100469.87
2019-03-01T23:36:06.407Z,100464.98
2019-03-01T23:38:34.166Z,100460.92
2019-03-01T23:41:01.922Z,100461.90
2019-03-01T23:43:30.791Z,100455.65
2019-03-01T23:45:59.354Z,100459.25
2019-03-01T23:48:27.150Z,100467.66
2019-03-01T23:50:54.883Z,100464.52
2019-03-01T23:53:22.645Z,100462.14
2019-03-01T23:55:50.929Z,100463.41
2019-03-01T23:58:20.025Z,100464.64
